sensor_id;sensor_type;location;lat;lon;timestamp;P1;durP1;ratioP1;P2;durP2;ratioP2
55013;SDS011;40916;51.632;5.552;2022-09-09T00:01:08;1.4;;;2.8;;
55013;SDS011;40916;51.632;5.552;2022-09-09T00:06:08;1.7;;;5.7;;
55013;SDS011;40916;51.632;5.552;2022-09-09T00:11:07;1.9;;;5;;
55013;SDS011;40916;51.632;5.552;2022-09-09T00:16:08;1.5;;;5.2;;
55013;SDS011;40916;51.632;5.552;2022-09-09T00:21:10;1.5;;;4.7;;
55013;SDS011;40916;51.632;5.552;2022-09-09T00:26:08;1.3;;;3.8;;
55013;SDS011;40916;51.632;5.552;2022-09-09T00:31:11;1.6;;;4.5;;
55013;SDS011;40916;51.632;5.552;2022-09-09T00:36:09;1.6;;;4.3;;
55013;SDS011;40916;51.632;5.552;2022-09-09T00:41:09;1.5;;;5.6;;
55013;SDS011;40916;51.632;5.552;2022-09-09T00:46:13;1.6;;;5.4;;
55013;SDS011;40916;51.632;5.552;2022-09-09T00:51:08;1.7;;;3.8;;
55013;SDS011;40916;51.632;5.552;2022-09-09T00:56:09;1.8;;;3.7;;
55013;SDS011;40916;51.632;5.552;2022-09-09T01:01:08;1.5;;;3.5;;
55013;SDS011;40916;51.632;5.552;2022-09-09T01:06:12;1.6;;;3.6;;
55013;SDS011;40916;51.632;5.552;2022-09-09T01:11:09;1.7;;;5;;
55013;SDS011;40916;51.632;5.552;2022-09-09T01:16:08;1.6;;;3.5;;
55013;SDS011;40916;51.632;5.552;2022-09-09T01:21:09;1.5;;;5.6;;
55013;SDS011;40916;51.632;5.552;2022-09-09T01:26:09;1.7;;;6.6;;
55013;SDS011;40916;51.632;5.552;2022-09-09T01:31:07;1.6;;;4.7;;
55013;SDS011;40916;51.632;5.552;2022-09-09T01:36:08;1.6;;;6.3;;
55013;SDS011;40916;51.632;5.552;2022-09-09T01:41:07;1.6;;;5.3;;
55013;SDS011;40916;51.632;5.552;2022-09-09T01:46:07;1.6;;;4.8;;
55013;SDS011;40916;51.632;5.552;2022-09-09T01:51:08;1.4;;;4.4;;
55013;SDS011;40916;51.632;5.552;2022-09-09T01:56:11;1.5;;;2.9;;
55013;SDS011;40916;51.632;5.552;2022-09-09T02:01:09;1.7;;;5.1;;
55013;SDS011;40916;51.632;5.552;2022-09-09T02:06:11;1.8;;;6.3;;
55013;SDS011;40916;51.632;5.552;2022-09-09T02:11:08;1.8;;;7.8;;
55013;SDS011;40916;51.632;5.552;2022-09-09T02:16:08;1.5;;;3.3;;
55013;SDS011;40916;51.632;5.552;2022-09-09T02:21:07;1.7;;;3.2;;
55013;SDS011;40916;51.632;5.552;2022-09-09T02:26:07;1.6;;;7.5;;
55013;SDS011;40916;51.632;5.552;2022-09-09T02:31:07;1.7;;;2.8;;
55013;SDS011;40916;51.632;5.552;2022-09-09T02:36:08;1.8;;;4.2;;
55013;SDS011;40916;51.632;5.552;2022-09-09T02:41:07;1.6;;;6.2;;
55013;SDS011;40916;51.632;5.552;2022-09-09T02:46:08;2;;;3.8;;
55013;SDS011;40916;51.632;5.552;2022-09-09T02:51:08;1.5;;;4.6;;
55013;SDS011;40916;51.632;5.552;2022-09-09T02:56:08;2.4;;;7.7;;
55013;SDS011;40916;51.632;5.552;2022-09-09T03:01:07;1.8;;;6.8;;
55013;SDS011;40916;51.632;5.552;2022-09-09T03:06:07;2.1;;;7.4;;
55013;SDS011;40916;51.632;5.552;2022-09-09T03:11:12;2;;;6.3;;
55013;SDS011;40916;51.632;5.552;2022-09-09T03:16:07;2.1;;;7.5;;
55013;SDS011;40916;51.632;5.552;2022-09-09T03:21:07;2.1;;;5.6;;
55013;SDS011;40916;51.632;5.552;2022-09-09T03:26:07;2.1;;;4.5;;
55013;SDS011;40916;51.632;5.552;2022-09-09T03:31:07;1.9;;;4.3;;
55013;SDS011;40916;51.632;5.552;2022-09-09T03:36:07;2;;;8.1;;
55013;SDS011;40916;51.632;5.552;2022-09-09T03:41:07;2.2;;;8.3;;
55013;SDS011;40916;51.632;5.552;2022-09-09T03:46:07;1.9;;;8;;
55013;SDS011;40916;51.632;5.552;2022-09-09T03:51:07;1.9;;;5.9;;
55013;SDS011;40916;51.632;5.552;2022-09-09T03:56:07;1.8;;;5.1;;
55013;SDS011;40916;51.632;5.552;2022-09-09T04:01:08;3.2;;;11.8;;
55013;SDS011;40916;51.632;5.552;2022-09-09T04:06:08;2;;;7.8;;
55013;SDS011;40916;51.632;5.552;2022-09-09T04:11:07;1.9;;;6.9;;
55013;SDS011;40916;51.632;5.552;2022-09-09T04:16:09;1.9;;;4.4;;
55013;SDS011;40916;51.632;5.552;2022-09-09T04:21:08;1.9;;;5.2;;
55013;SDS011;40916;51.632;5.552;2022-09-09T04:26:07;2.2;;;9.8;;
55013;SDS011;40916;51.632;5.552;2022-09-09T04:31:08;2.4;;;9.5;;
55013;SDS011;40916;51.632;5.552;2022-09-09T04:36:07;2.4;;;11.4;;
55013;SDS011;40916;51.632;5.552;2022-09-09T04:41:07;1.8;;;7.1;;
55013;SDS011;40916;51.632;5.552;2022-09-09T04:46:07;2.1;;;8.3;;
55013;SDS011;40916;51.632;5.552;2022-09-09T04:51:09;2.6;;;7.1;;
55013;SDS011;40916;51.632;5.552;2022-09-09T04:56:08;1.8;;;5.5;;
55013;SDS011;40916;51.632;5.552;2022-09-09T05:01:08;1.6;;;5.2;;
55013;SDS011;40916;51.632;5.552;2022-09-09T05:06:08;2.2;;;6.6;;
55013;SDS011;40916;51.632;5.552;2022-09-09T05:11:13;2.1;;;7.8;;
55013;SDS011;40916;51.632;5.552;2022-09-09T05:16:07;1.9;;;6.3;;
55013;SDS011;40916;51.632;5.552;2022-09-09T05:21:07;2;;;7.2;;
55013;SDS011;40916;51.632;5.552;2022-09-09T05:26:09;1.9;;;4.4;;
55013;SDS011;40916;51.632;5.552;2022-09-09T05:31:08;2.4;;;7.2;;
55013;SDS011;40916;51.632;5.552;2022-09-09T05:36:08;2.8;;;12.4;;
55013;SDS011;40916;51.632;5.552;2022-09-09T05:41:07;2;;;6.4;;
55013;SDS011;40916;51.632;5.552;2022-09-09T05:46:08;2.9;;;6.1;;
55013;SDS011;40916;51.632;5.552;2022-09-09T05:51:08;1.9;;;7.6;;
55013;SDS011;40916;51.632;5.552;2022-09-09T05:56:08;2.5;;;8.4;;
55013;SDS011;40916;51.632;5.552;2022-09-09T06:01:08;1.6;;;5.7;;
55013;SDS011;40916;51.632;5.552;2022-09-09T06:06:08;2.9;;;6.9;;
55013;SDS011;40916;51.632;5.552;2022-09-09T06:11:08;2.2;;;9.1;;
55013;SDS011;40916;51.632;5.552;2022-09-09T06:16:07;2.9;;;11.4;;
55013;SDS011;40916;51.632;5.552;2022-09-09T06:21:09;2.4;;;8.1;;
55013;SDS011;40916;51.632;5.552;2022-09-09T06:26:08;2.3;;;12.2;;
55013;SDS011;40916;51.632;5.552;2022-09-09T06:31:08;2.6;;;10;;
55013;SDS011;40916;51.632;5.552;2022-09-09T06:36:07;2.2;;;9.7;;
55013;SDS011;40916;51.632;5.552;2022-09-09T06:41:07;2.3;;;16;;
55013;SDS011;40916;51.632;5.552;2022-09-09T06:46:08;3.1;;;9.6;;
55013;SDS011;40916;51.632;5.552;2022-09-09T06:51:08;2.2;;;8.7;;
55013;SDS011;40916;51.632;5.552;2022-09-09T06:56:19;2;;;9.9;;
55013;SDS011;40916;51.632;5.552;2022-09-09T07:01:07;2.6;;;9.2;;
55013;SDS011;40916;51.632;5.552;2022-09-09T07:06:08;2.4;;;15.6;;
55013;SDS011;40916;51.632;5.552;2022-09-09T07:11:08;2.4;;;12.2;;
55013;SDS011;40916;51.632;5.552;2022-09-09T07:16:08;2.7;;;9.8;;
55013;SDS011;40916;51.632;5.552;2022-09-09T07:21:08;2.6;;;10.7;;
55013;SDS011;40916;51.632;5.552;2022-09-09T07:26:07;2.4;;;10.4;;
55013;SDS011;40916;51.632;5.552;2022-09-09T07:31:08;2.3;;;12.9;;
55013;SDS011;40916;51.632;5.552;2022-09-09T07:36:08;2.7;;;10.5;;
55013;SDS011;40916;51.632;5.552;2022-09-09T07:41:07;2;;;9.6;;
55013;SDS011;40916;51.632;5.552;2022-09-09T07:46:07;2.3;;;11.9;;
55013;SDS011;40916;51.632;5.552;2022-09-09T07:51:07;2.1;;;12.6;;
55013;SDS011;40916;51.632;5.552;2022-09-09T07:56:08;2.5;;;10.3;;
55013;SDS011;40916;51.632;5.552;2022-09-09T08:01:08;1.8;;;7.9;;
55013;SDS011;40916;51.632;5.552;2022-09-09T08:06:08;1.9;;;10.7;;
55013;SDS011;40916;51.632;5.552;2022-09-09T08:11:08;2;;;10.5;;
55013;SDS011;40916;51.632;5.552;2022-09-09T08:16:08;2.6;;;10.6;;
55013;SDS011;40916;51.632;5.552;2022-09-09T08:21:08;2.1;;;14.1;;
55013;SDS011;40916;51.632;5.552;2022-09-09T08:26:09;1.9;;;7.9;;
55013;SDS011;40916;51.632;5.552;2022-09-09T08:31:08;1.8;;;7.6;;
55013;SDS011;40916;51.632;5.552;2022-09-09T08:36:08;2.3;;;9.6;;
55013;SDS011;40916;51.632;5.552;2022-09-09T08:41:12;2;;;7.2;;
55013;SDS011;40916;51.632;5.552;2022-09-09T08:46:08;1.9;;;9.6;;
55013;SDS011;40916;51.632;5.552;2022-09-09T08:51:07;2.5;;;9.2;;
55013;SDS011;40916;51.632;5.552;2022-09-09T08:56:08;2.5;;;11.1;;
55013;SDS011;40916;51.632;5.552;2022-09-09T09:01:15;1.8;;;13.2;;
55013;SDS011;40916;51.632;5.552;2022-09-09T09:06:10;2.4;;;8.8;;
55013;SDS011;40916;51.632;5.552;2022-09-09T09:11:07;2.3;;;10.8;;
55013;SDS011;40916;51.632;5.552;2022-09-09T09:16:10;2;;;13;;
55013;SDS011;40916;51.632;5.552;2022-09-09T09:21:08;1.9;;;9.7;;
55013;SDS011;40916;51.632;5.552;2022-09-09T09:26:07;2.2;;;7.7;;
55013;SDS011;40916;51.632;5.552;2022-09-09T09:31:08;2.5;;;9.7;;
55013;SDS011;40916;51.632;5.552;2022-09-09T09:36:07;1.8;;;11.4;;
55013;SDS011;40916;51.632;5.552;2022-09-09T09:41:07;2;;;8.4;;
55013;SDS011;40916;51.632;5.552;2022-09-09T09:46:17;2;;;9.5;;
55013;SDS011;40916;51.632;5.552;2022-09-09T09:51:08;2.1;;;12.1;;
55013;SDS011;40916;51.632;5.552;2022-09-09T09:56:08;2.3;;;7.9;;
55013;SDS011;40916;51.632;5.552;2022-09-09T10:01:18;2.4;;;11;;
55013;SDS011;40916;51.632;5.552;2022-09-09T10:06:08;2.6;;;11.1;;
55013;SDS011;40916;51.632;5.552;2022-09-09T10:11:12;1.6;;;6.1;;
55013;SDS011;40916;51.632;5.552;2022-09-09T10:16:11;2;;;10.9;;
55013;SDS011;40916;51.632;5.552;2022-09-09T10:21:11;1.9;;;10;;
55013;SDS011;40916;51.632;5.552;2022-09-09T10:26:10;2;;;7.3;;
55013;SDS011;40916;51.632;5.552;2022-09-09T10:31:11;1.6;;;5.6;;
55013;SDS011;40916;51.632;5.552;2022-09-09T10:36:08;2.9;;;8;;
55013;SDS011;40916;51.632;5.552;2022-09-09T10:41:10;2.7;;;14;;
55013;SDS011;40916;51.632;5.552;2022-09-09T10:46:09;2.4;;;9.4;;
55013;SDS011;40916;51.632;5.552;2022-09-09T10:51:12;1.8;;;7.8;;
55013;SDS011;40916;51.632;5.552;2022-09-09T10:56:07;1.9;;;10.4;;
55013;SDS011;40916;51.632;5.552;2022-09-09T11:01:09;2.1;;;7.4;;
55013;SDS011;40916;51.632;5.552;2022-09-09T11:06:09;2.5;;;8.2;;
55013;SDS011;40916;51.632;5.552;2022-09-09T11:11:09;1.8;;;8.5;;
55013;SDS011;40916;51.632;5.552;2022-09-09T11:16:12;2.6;;;12.2;;
55013;SDS011;40916;51.632;5.552;2022-09-09T11:21:08;2.1;;;5.7;;
55013;SDS011;40916;51.632;5.552;2022-09-09T11:26:07;2.8;;;9.8;;
55013;SDS011;40916;51.632;5.552;2022-09-09T11:31:11;2.5;;;6.7;;
55013;SDS011;40916;51.632;5.552;2022-09-09T11:36:15;1.5;;;9.5;;
55013;SDS011;40916;51.632;5.552;2022-09-09T11:41:07;1.9;;;8.3;;
55013;SDS011;40916;51.632;5.552;2022-09-09T11:46:07;1.6;;;7;;
55013;SDS011;40916;51.632;5.552;2022-09-09T11:51:07;1.9;;;5.8;;
55013;SDS011;40916;51.632;5.552;2022-09-09T11:56:09;1.8;;;4.7;;
55013;SDS011;40916;51.632;5.552;2022-09-09T12:01:14;1.6;;;6.7;;
55013;SDS011;40916;51.632;5.552;2022-09-09T12:06:11;1.6;;;6.9;;
55013;SDS011;40916;51.632;5.552;2022-09-09T12:11:07;1.8;;;6;;
55013;SDS011;40916;51.632;5.552;2022-09-09T12:16:26;1.6;;;6.6;;
55013;SDS011;40916;51.632;5.552;2022-09-09T12:21:07;1.4;;;4;;
55013;SDS011;40916;51.632;5.552;2022-09-09T12:26:14;1.8;;;5.9;;
55013;SDS011;40916;51.632;5.552;2022-09-09T12:31:08;2;;;8.3;;
55013;SDS011;40916;51.632;5.552;2022-09-09T12:36:07;1.9;;;8.7;;
55013;SDS011;40916;51.632;5.552;2022-09-09T12:41:15;2.2;;;6.5;;
55013;SDS011;40916;51.632;5.552;2022-09-09T12:46:07;1.3;;;3.7;;
55013;SDS011;40916;51.632;5.552;2022-09-09T12:51:07;1.4;;;6.3;;
55013;SDS011;40916;51.632;5.552;2022-09-09T12:56:07;2;;;9.3;;
55013;SDS011;40916;51.632;5.552;2022-09-09T13:01:17;2;;;9.3;;
55013;SDS011;40916;51.632;5.552;2022-09-09T13:06:10;1.3;;;4.8;;
55013;SDS011;40916;51.632;5.552;2022-09-09T13:11:07;1.8;;;10.7;;
55013;SDS011;40916;51.632;5.552;2022-09-09T13:16:16;1.9;;;6.7;;
55013;SDS011;40916;51.632;5.552;2022-09-09T13:21:06;2.3;;;11;;
55013;SDS011;40916;51.632;5.552;2022-09-09T13:26:19;2;;;10;;
55013;SDS011;40916;51.632;5.552;2022-09-09T13:31:19;2.2;;;10.2;;
55013;SDS011;40916;51.632;5.552;2022-09-09T13:36:07;2.4;;;5.6;;
55013;SDS011;40916;51.632;5.552;2022-09-09T13:41:07;2.3;;;14.6;;
55013;SDS011;40916;51.632;5.552;2022-09-09T13:46:21;2.8;;;12.8;;
55013;SDS011;40916;51.632;5.552;2022-09-09T13:51:22;1.9;;;6;;
55013;SDS011;40916;51.632;5.552;2022-09-09T13:56:07;2.5;;;10.6;;
55013;SDS011;40916;51.632;5.552;2022-09-09T14:01:06;2;;;7.1;;
55013;SDS011;40916;51.632;5.552;2022-09-09T14:06:06;1.8;;;5.6;;
55013;SDS011;40916;51.632;5.552;2022-09-09T14:11:07;1.6;;;5.4;;
55013;SDS011;40916;51.632;5.552;2022-09-09T14:16:06;1.4;;;4.4;;
55013;SDS011;40916;51.632;5.552;2022-09-09T14:21:06;1.9;;;9.3;;
55013;SDS011;40916;51.632;5.552;2022-09-09T14:26:07;1.5;;;4.7;;
55013;SDS011;40916;51.632;5.552;2022-09-09T14:31:06;1.6;;;6.8;;
55013;SDS011;40916;51.632;5.552;2022-09-09T14:36:06;1.7;;;6.3;;
55013;SDS011;40916;51.632;5.552;2022-09-09T14:41:06;2.3;;;7.3;;
55013;SDS011;40916;51.632;5.552;2022-09-09T14:46:07;1.9;;;4.6;;
55013;SDS011;40916;51.632;5.552;2022-09-09T14:51:07;1.6;;;5.4;;
55013;SDS011;40916;51.632;5.552;2022-09-09T14:56:07;1.7;;;5;;
55013;SDS011;40916;51.632;5.552;2022-09-09T15:01:07;1.3;;;4.6;;
55013;SDS011;40916;51.632;5.552;2022-09-09T15:06:07;1.5;;;4.1;;
55013;SDS011;40916;51.632;5.552;2022-09-09T15:11:07;1.7;;;4.9;;
55013;SDS011;40916;51.632;5.552;2022-09-09T15:16:07;1.5;;;7.3;;
55013;SDS011;40916;51.632;5.552;2022-09-09T15:21:06;1.5;;;5.8;;
55013;SDS011;40916;51.632;5.552;2022-09-09T15:26:07;2;;;7.1;;
55013;SDS011;40916;51.632;5.552;2022-09-09T15:31:07;1.4;;;4.7;;
55013;SDS011;40916;51.632;5.552;2022-09-09T15:36:14;1.3;;;9.8;;
55013;SDS011;40916;51.632;5.552;2022-09-09T15:41:06;1.7;;;6.1;;
55013;SDS011;40916;51.632;5.552;2022-09-09T15:46:14;1.4;;;3.4;;
55013;SDS011;40916;51.632;5.552;2022-09-09T15:51:06;1;;;5.2;;
55013;SDS011;40916;51.632;5.552;2022-09-09T15:56:06;1.5;;;4.7;;
55013;SDS011;40916;51.632;5.552;2022-09-09T16:01:07;1.4;;;4.8;;
55013;SDS011;40916;51.632;5.552;2022-09-09T16:06:06;1.8;;;5.3;;
55013;SDS011;40916;51.632;5.552;2022-09-09T16:11:07;1.4;;;3.3;;
55013;SDS011;40916;51.632;5.552;2022-09-09T16:16:06;1.1;;;2.6;;
55013;SDS011;40916;51.632;5.552;2022-09-09T16:21:06;1.5;;;3.8;;
55013;SDS011;40916;51.632;5.552;2022-09-09T16:26:08;1.3;;;3.2;;
55013;SDS011;40916;51.632;5.552;2022-09-09T16:31:06;2.1;;;5;;
55013;SDS011;40916;51.632;5.552;2022-09-09T16:36:07;2.2;;;4.1;;
55013;SDS011;40916;51.632;5.552;2022-09-09T16:41:06;1.9;;;9.3;;
55013;SDS011;40916;51.632;5.552;2022-09-09T16:46:11;1.7;;;6.5;;
55013;SDS011;40916;51.632;5.552;2022-09-09T16:51:07;1.8;;;4.8;;
55013;SDS011;40916;51.632;5.552;2022-09-09T16:56:07;1.9;;;4.7;;
55013;SDS011;40916;51.632;5.552;2022-09-09T17:01:06;1.5;;;3.5;;
55013;SDS011;40916;51.632;5.552;2022-09-09T17:06:08;1.7;;;5.4;;
55013;SDS011;40916;51.632;5.552;2022-09-09T17:11:10;1.8;;;4.2;;
55013;SDS011;40916;51.632;5.552;2022-09-09T17:16:06;1.9;;;5.4;;
55013;SDS011;40916;51.632;5.552;2022-09-09T17:21:07;2.2;;;6.1;;
55013;SDS011;40916;51.632;5.552;2022-09-09T17:26:07;2.4;;;6.2;;
55013;SDS011;40916;51.632;5.552;2022-09-09T17:31:07;2.1;;;4.6;;
55013;SDS011;40916;51.632;5.552;2022-09-09T17:36:07;1.7;;;3.5;;
55013;SDS011;40916;51.632;5.552;2022-09-09T17:41:07;1.4;;;3.2;;
55013;SDS011;40916;51.632;5.552;2022-09-09T17:46:07;2;;;6;;
55013;SDS011;40916;51.632;5.552;2022-09-09T17:51:07;1.3;;;2.8;;
55013;SDS011;40916;51.632;5.552;2022-09-09T17:56:07;1.2;;;3.8;;
55013;SDS011;40916;51.632;5.552;2022-09-09T18:01:07;1.1;;;5.4;;
55013;SDS011;40916;51.632;5.552;2022-09-09T18:06:07;1.1;;;2.3;;
55013;SDS011;40916;51.632;5.552;2022-09-09T18:11:06;1.4;;;4.1;;
55013;SDS011;40916;51.632;5.552;2022-09-09T18:16:07;1.3;;;2.6;;
55013;SDS011;40916;51.632;5.552;2022-09-09T18:21:07;1.4;;;2.7;;
55013;SDS011;40916;51.632;5.552;2022-09-09T18:26:07;1.4;;;4.4;;
55013;SDS011;40916;51.632;5.552;2022-09-09T18:31:06;1.6;;;3.5;;
55013;SDS011;40916;51.632;5.552;2022-09-09T18:36:06;1.4;;;7.4;;
55013;SDS011;40916;51.632;5.552;2022-09-09T18:41:13;1.7;;;2.6;;
55013;SDS011;40916;51.632;5.552;2022-09-09T18:46:06;1.7;;;4;;
55013;SDS011;40916;51.632;5.552;2022-09-09T18:51:07;1.6;;;2.8;;
55013;SDS011;40916;51.632;5.552;2022-09-09T18:56:08;1.7;;;3.4;;
55013;SDS011;40916;51.632;5.552;2022-09-09T19:01:07;2.6;;;6.4;;
55013;SDS011;40916;51.632;5.552;2022-09-09T19:06:07;2.8;;;8;;
55013;SDS011;40916;51.632;5.552;2022-09-09T19:11:07;2.6;;;5;;
55013;SDS011;40916;51.632;5.552;2022-09-09T19:16:07;3;;;6.7;;
55013;SDS011;40916;51.632;5.552;2022-09-09T19:21:08;2.4;;;5.2;;
55013;SDS011;40916;51.632;5.552;2022-09-09T19:26:06;2.7;;;4.3;;
55013;SDS011;40916;51.632;5.552;2022-09-09T19:31:07;2.1;;;3.1;;
55013;SDS011;40916;51.632;5.552;2022-09-09T19:36:06;2.5;;;6.3;;
55013;SDS011;40916;51.632;5.552;2022-09-09T19:41:07;2.9;;;8.4;;
55013;SDS011;40916;51.632;5.552;2022-09-09T19:46:07;2.7;;;5.3;;
55013;SDS011;40916;51.632;5.552;2022-09-09T19:51:07;3.3;;;8;;
55013;SDS011;40916;51.632;5.552;2022-09-09T19:56:06;3.2;;;5.6;;
55013;SDS011;40916;51.632;5.552;2022-09-09T20:01:07;3.3;;;9.1;;
55013;SDS011;40916;51.632;5.552;2022-09-09T20:06:06;3;;;4.4;;
55013;SDS011;40916;51.632;5.552;2022-09-09T20:11:06;3.3;;;5.1;;
55013;SDS011;40916;51.632;5.552;2022-09-09T20:16:07;3.2;;;9.9;;
55013;SDS011;40916;51.632;5.552;2022-09-09T20:21:07;3.6;;;7.2;;
55013;SDS011;40916;51.632;5.552;2022-09-09T20:26:07;3.4;;;5;;
55013;SDS011;40916;51.632;5.552;2022-09-09T20:31:07;3.7;;;11.8;;
55013;SDS011;40916;51.632;5.552;2022-09-09T20:36:09;3.6;;;6;;
55013;SDS011;40916;51.632;5.552;2022-09-09T20:41:06;3.8;;;10.9;;
55013;SDS011;40916;51.632;5.552;2022-09-09T20:46:06;3;;;7.9;;
55013;SDS011;40916;51.632;5.552;2022-09-09T20:51:06;3.3;;;6.7;;
55013;SDS011;40916;51.632;5.552;2022-09-09T20:56:06;4.2;;;7.7;;
55013;SDS011;40916;51.632;5.552;2022-09-09T21:01:06;3.1;;;8.3;;
55013;SDS011;40916;51.632;5.552;2022-09-09T21:06:06;3.7;;;7.9;;
55013;SDS011;40916;51.632;5.552;2022-09-09T21:11:06;3.2;;;7;;
55013;SDS011;40916;51.632;5.552;2022-09-09T21:16:08;2.8;;;7.1;;
55013;SDS011;40916;51.632;5.552;2022-09-09T21:21:06;3.5;;;10.2;;
55013;SDS011;40916;51.632;5.552;2022-09-09T21:26:06;2.9;;;7.8;;
55013;SDS011;40916;51.632;5.552;2022-09-09T21:31:06;2.8;;;5.2;;
55013;SDS011;40916;51.632;5.552;2022-09-09T21:36:06;2.8;;;8.9;;
55013;SDS011;40916;51.632;5.552;2022-09-09T21:41:07;2.8;;;7.1;;
55013;SDS011;40916;51.632;5.552;2022-09-09T21:46:06;2.9;;;9.2;;
55013;SDS011;40916;51.632;5.552;2022-09-09T21:51:07;3.2;;;8.9;;
55013;SDS011;40916;51.632;5.552;2022-09-09T21:56:07;3.2;;;7;;
55013;SDS011;40916;51.632;5.552;2022-09-09T22:01:07;2.9;;;11.4;;
55013;SDS011;40916;51.632;5.552;2022-09-09T22:06:07;2.8;;;14.9;;
55013;SDS011;40916;51.632;5.552;2022-09-09T22:11:06;3.1;;;9.3;;
55013;SDS011;40916;51.632;5.552;2022-09-09T22:16:06;3.7;;;16.9;;
55013;SDS011;40916;51.632;5.552;2022-09-09T22:21:06;2.6;;;9.7;;
55013;SDS011;40916;51.632;5.552;2022-09-09T22:26:06;2.6;;;8.7;;
55013;SDS011;40916;51.632;5.552;2022-09-09T22:31:06;2.7;;;11;;
55013;SDS011;40916;51.632;5.552;2022-09-09T22:36:06;3.4;;;13.3;;
55013;SDS011;40916;51.632;5.552;2022-09-09T22:41:06;2.7;;;9.3;;
55013;SDS011;40916;51.632;5.552;2022-09-09T22:46:06;2.3;;;9.6;;
55013;SDS011;40916;51.632;5.552;2022-09-09T22:51:06;2.8;;;10;;
55013;SDS011;40916;51.632;5.552;2022-09-09T22:56:06;3.5;;;11.6;;
55013;SDS011;40916;51.632;5.552;2022-09-09T23:01:06;2.5;;;8;;
55013;SDS011;40916;51.632;5.552;2022-09-09T23:06:06;2.5;;;8;;
55013;SDS011;40916;51.632;5.552;2022-09-09T23:11:06;2.3;;;10.8;;
55013;SDS011;40916;51.632;5.552;2022-09-09T23:16:07;3.2;;;10.2;;
55013;SDS011;40916;51.632;5.552;2022-09-09T23:21:06;2.8;;;8.1;;
55013;SDS011;40916;51.632;5.552;2022-09-09T23:26:06;3.3;;;17.1;;
55013;SDS011;40916;51.632;5.552;2022-09-09T23:31:06;3.3;;;10.6;;
55013;SDS011;40916;51.632;5.552;2022-09-09T23:36:07;3.2;;;11.6;;
55013;SDS011;40916;51.632;5.552;2022-09-09T23:41:07;3;;;10.7;;
55013;SDS011;40916;51.632;5.552;2022-09-09T23:46:06;3.2;;;13.2;;
55013;SDS011;40916;51.632;5.552;2022-09-09T23:51:06;3.4;;;6.9;;
55013;SDS011;40916;51.632;5.552;2022-09-09T23:56:06;3.9;;;12.2;;
